Jask, Iran
Current Conditions -  °F | °C
As of 10:00 AM on Monday 22 Dec 2014 (Local Time) from OMFJ Reporting Station
Clear Clear  
Wind Chill: 25°   Ceiling: Unl
Heat Index: 26°   Visibility: 5mi
Dew Point:   Wind: 14mph
Humidity: 34%   Direction: 300°WNW
Pressure: 29.97"   Gusts: NA
Location:  25.65°N, 57.78°E
Report Text: OMFJ 220700Z 30012KT 8000 NSC 25/08 Q1015 A2997
Loading
Personal Weather Stations






























Interactive Weather Map New forecast layout! Learn more

10-Day Weather Forecast

Advertisements
Track Severe Weather on mobile